sensor_id;sensor_type;location;lat;lon;timestamp;temperature;humidity
20845;DHT22;10583;49.084;8.646;2022-09-23T00:01:00;7.80;99.90
20845;DHT22;10583;49.084;8.646;2022-09-23T00:03:30;7.80;99.90
20845;DHT22;10583;49.084;8.646;2022-09-23T00:05:59;7.80;99.90
20845;DHT22;10583;49.084;8.646;2022-09-23T00:08:26;7.70;99.90
20845;DHT22;10583;49.084;8.646;2022-09-23T00:10:53;7.70;99.90
20845;DHT22;10583;49.084;8.646;2022-09-23T00:13:20;7.70;99.90
20845;DHT22;10583;49.084;8.646;2022-09-23T00:15:47;7.60;99.90
20845;DHT22;10583;49.084;8.646;2022-09-23T00:18:14;7.60;99.90
20845;DHT22;10583;49.084;8.646;2022-09-23T00:20:43;7.60;99.90
20845;DHT22;10583;49.084;8.646;2022-09-23T00:23:10;7.60;99.90
20845;DHT22;10583;49.084;8.646;2022-09-23T00:25:37;7.50;99.90
20845;DHT22;10583;49.084;8.646;2022-09-23T00:28:04;7.50;99.90
20845;DHT22;10583;49.084;8.646;2022-09-23T00:30:31;7.50;99.90
20845;DHT22;10583;49.084;8.646;2022-09-23T00:32:58;7.50;99.90
20845;DHT22;10583;49.084;8.646;2022-09-23T00:35:24;7.50;99.90
20845;DHT22;10583;49.084;8.646;2022-09-23T00:37:53;7.50;99.90
20845;DHT22;10583;49.084;8.646;2022-09-23T00:40:20;7.40;99.90
20845;DHT22;10583;49.084;8.646;2022-09-23T00:42:48;7.40;99.90
20845;DHT22;10583;49.084;8.646;2022-09-23T00:45:18;7.40;99.90
20845;DHT22;10583;49.084;8.646;2022-09-23T00:47:47;7.40;99.90
20845;DHT22;10583;49.084;8.646;2022-09-23T00:50:21;7.40;99.90
20845;DHT22;10583;49.084;8.646;2022-09-23T00:52:51;7.30;99.90
20845;DHT22;10583;49.084;8.646;2022-09-23T00:55:23;7.20;99.90
20845;DHT22;10583;49.084;8.646;2022-09-23T00:57:52;7.20;99.90
20845;DHT22;10583;49.084;8.646;2022-09-23T01:00:21;7.20;99.90
20845;DHT22;10583;49.084;8.646;2022-09-23T01:02:48;7.20;99.90
20845;DHT22;10583;49.084;8.646;2022-09-23T01:05:16;7.20;99.90
20845;DHT22;10583;49.084;8.646;2022-09-23T01:07:43;7.20;99.90
20845;DHT22;10583;49.084;8.646;2022-09-23T01:10:11;7.10;99.90
20845;DHT22;10583;49.084;8.646;2022-09-23T01:12:54;7.10;99.90
20845;DHT22;10583;49.084;8.646;2022-09-23T01:15:29;7.10;99.90
20845;DHT22;10583;49.084;8.646;2022-09-23T01:18:08;7.10;99.90
20845;DHT22;10583;49.084;8.646;2022-09-23T01:20:54;7.10;99.90
20845;DHT22;10583;49.084;8.646;2022-09-23T01:24:02;7.10;99.90
20845;DHT22;10583;49.084;8.646;2022-09-23T01:26:47;7.10;99.90
20845;DHT22;10583;49.084;8.646;2022-09-23T01:29:47;7.00;99.90
20845;DHT22;10583;49.084;8.646;2022-09-23T01:32:24;7.00;99.90
20845;DHT22;10583;49.084;8.646;2022-09-23T01:35:01;7.00;99.90
20845;DHT22;10583;49.084;8.646;2022-09-23T01:37:38;7.00;99.90
20845;DHT22;10583;49.084;8.646;2022-09-23T01:40:09;7.00;99.90
20845;DHT22;10583;49.084;8.646;2022-09-23T01:42:46;7.00;99.90
20845;DHT22;10583;49.084;8.646;2022-09-23T01:45:20;7.00;99.90
20845;DHT22;10583;49.084;8.646;2022-09-23T01:47:54;7.00;99.90
20845;DHT22;10583;49.084;8.646;2022-09-23T01:50:26;6.90;99.90
20845;DHT22;10583;49.084;8.646;2022-09-23T01:53:14;6.90;99.90
20845;DHT22;10583;49.084;8.646;2022-09-23T01:55:46;6.90;99.90
20845;DHT22;10583;49.084;8.646;2022-09-23T01:58:18;6.90;99.90
20845;DHT22;10583;49.084;8.646;2022-09-23T02:00:52;6.80;99.90
20845;DHT22;10583;49.084;8.646;2022-09-23T02:03:23;6.80;99.90
20845;DHT22;10583;49.084;8.646;2022-09-23T02:05:55;6.90;99.90
20845;DHT22;10583;49.084;8.646;2022-09-23T02:08:28;6.90;99.90
20845;DHT22;10583;49.084;8.646;2022-09-23T02:11:00;6.80;99.90
20845;DHT22;10583;49.084;8.646;2022-09-23T02:13:33;6.90;99.90
20845;DHT22;10583;49.084;8.646;2022-09-23T02:16:09;6.90;99.90
20845;DHT22;10583;49.084;8.646;2022-09-23T02:18:45;6.80;99.90
20845;DHT22;10583;49.084;8.646;2022-09-23T02:21:14;6.80;99.90
20845;DHT22;10583;49.084;8.646;2022-09-23T02:23:43;6.80;99.90
20845;DHT22;10583;49.084;8.646;2022-09-23T02:26:17;6.80;99.90
20845;DHT22;10583;49.084;8.646;2022-09-23T02:28:50;6.80;99.90
20845;DHT22;10583;49.084;8.646;2022-09-23T02:31:28;6.80;99.90
20845;DHT22;10583;49.084;8.646;2022-09-23T02:34:01;6.80;99.90
20845;DHT22;10583;49.084;8.646;2022-09-23T02:36:39;6.80;99.90
20845;DHT22;10583;49.084;8.646;2022-09-23T02:39:12;6.80;99.90
20845;DHT22;10583;49.084;8.646;2022-09-23T02:41:47;6.80;99.90
20845;DHT22;10583;49.084;8.646;2022-09-23T02:44:19;6.80;99.90
20845;DHT22;10583;49.084;8.646;2022-09-23T02:46:48;6.80;99.90
20845;DHT22;10583;49.084;8.646;2022-09-23T02:49:21;6.90;99.90
20845;DHT22;10583;49.084;8.646;2022-09-23T02:51:50;6.90;99.90
20845;DHT22;10583;49.084;8.646;2022-09-23T02:54:20;6.80;99.90
20845;DHT22;10583;49.084;8.646;2022-09-23T02:56:47;6.80;99.90
20845;DHT22;10583;49.084;8.646;2022-09-23T02:59:16;6.70;99.90
20845;DHT22;10583;49.084;8.646;2022-09-23T03:02:08;6.70;99.90
20845;DHT22;10583;49.084;8.646;2022-09-23T03:04:46;6.70;99.90
20845;DHT22;10583;49.084;8.646;2022-09-23T03:07:19;6.60;99.90
20845;DHT22;10583;49.084;8.646;2022-09-23T03:09:53;6.60;99.90
20845;DHT22;10583;49.084;8.646;2022-09-23T03:12:26;6.60;99.90
20845;DHT22;10583;49.084;8.646;2022-09-23T03:15:07;6.60;99.90
20845;DHT22;10583;49.084;8.646;2022-09-23T03:17:42;6.70;99.90
20845;DHT22;10583;49.084;8.646;2022-09-23T03:20:22;6.70;99.90
20845;DHT22;10583;49.084;8.646;2022-09-23T03:22:52;6.70;99.90
20845;DHT22;10583;49.084;8.646;2022-09-23T03:25:23;6.60;99.90
20845;DHT22;10583;49.084;8.646;2022-09-23T03:27:54;6.70;99.90
20845;DHT22;10583;49.084;8.646;2022-09-23T03:30:23;6.60;99.90
20845;DHT22;10583;49.084;8.646;2022-09-23T03:32:51;6.70;99.90
20845;DHT22;10583;49.084;8.646;2022-09-23T03:35:21;6.60;99.90
20845;DHT22;10583;49.084;8.646;2022-09-23T03:37:52;6.60;99.90
20845;DHT22;10583;49.084;8.646;2022-09-23T03:40:25;6.50;99.90
20845;DHT22;10583;49.084;8.646;2022-09-23T03:42:54;6.50;99.90
20845;DHT22;10583;49.084;8.646;2022-09-23T03:45:25;6.50;99.90
20845;DHT22;10583;49.084;8.646;2022-09-23T03:47:53;6.60;99.90
20845;DHT22;10583;49.084;8.646;2022-09-23T03:50:21;6.60;99.90
20845;DHT22;10583;49.084;8.646;2022-09-23T03:52:49;6.50;99.90
20845;DHT22;10583;49.084;8.646;2022-09-23T03:55:17;6.40;99.90
20845;DHT22;10583;49.084;8.646;2022-09-23T03:57:44;6.40;99.90
20845;DHT22;10583;49.084;8.646;2022-09-23T04:00:14;6.50;99.90
20845;DHT22;10583;49.084;8.646;2022-09-23T04:02:41;6.40;99.90
20845;DHT22;10583;49.084;8.646;2022-09-23T04:05:09;6.40;99.90
20845;DHT22;10583;49.084;8.646;2022-09-23T04:07:38;6.40;99.90
20845;DHT22;10583;49.084;8.646;2022-09-23T04:10:06;6.40;99.90
20845;DHT22;10583;49.084;8.646;2022-09-23T04:12:34;6.40;99.90
20845;DHT22;10583;49.084;8.646;2022-09-23T04:15:01;6.40;99.90
20845;DHT22;10583;49.084;8.646;2022-09-23T04:17:28;6.40;99.90
20845;DHT22;10583;49.084;8.646;2022-09-23T04:19:54;6.40;99.90
20845;DHT22;10583;49.084;8.646;2022-09-23T04:22:22;6.40;99.90
20845;DHT22;10583;49.084;8.646;2022-09-23T04:24:51;6.30;99.90
20845;DHT22;10583;49.084;8.646;2022-09-23T04:27:19;6.30;99.90
20845;DHT22;10583;49.084;8.646;2022-09-23T04:29:46;6.40;99.90
20845;DHT22;10583;49.084;8.646;2022-09-23T04:32:12;6.40;99.90
20845;DHT22;10583;49.084;8.646;2022-09-23T04:34:39;6.30;99.90
20845;DHT22;10583;49.084;8.646;2022-09-23T04:37:06;6.30;99.90
20845;DHT22;10583;49.084;8.646;2022-09-23T04:39:33;6.30;99.90
20845;DHT22;10583;49.084;8.646;2022-09-23T04:42:01;6.30;99.90
20845;DHT22;10583;49.084;8.646;2022-09-23T04:44:28;6.20;99.90
20845;DHT22;10583;49.084;8.646;2022-09-23T04:46:55;6.30;99.90
20845;DHT22;10583;49.084;8.646;2022-09-23T04:49:22;6.20;99.90
20845;DHT22;10583;49.084;8.646;2022-09-23T04:51:50;6.20;99.90
20845;DHT22;10583;49.084;8.646;2022-09-23T04:54:16;6.20;99.90
20845;DHT22;10583;49.084;8.646;2022-09-23T04:56:43;6.20;99.90
20845;DHT22;10583;49.084;8.646;2022-09-23T04:59:12;6.20;99.90
20845;DHT22;10583;49.084;8.646;2022-09-23T05:01:39;6.20;99.90
20845;DHT22;10583;49.084;8.646;2022-09-23T05:04:09;6.10;99.90
20845;DHT22;10583;49.084;8.646;2022-09-23T05:06:38;6.10;99.90
20845;DHT22;10583;49.084;8.646;2022-09-23T05:09:08;6.10;99.90
20845;DHT22;10583;49.084;8.646;2022-09-23T05:11:39;6.10;99.90
20845;DHT22;10583;49.084;8.646;2022-09-23T05:14:06;6.20;99.90
20845;DHT22;10583;49.084;8.646;2022-09-23T05:16:34;6.10;99.90
20845;DHT22;10583;49.084;8.646;2022-09-23T05:19:01;6.20;99.90
20845;DHT22;10583;49.084;8.646;2022-09-23T05:21:28;6.20;99.90
20845;DHT22;10583;49.084;8.646;2022-09-23T05:23:56;6.30;99.90
20845;DHT22;10583;49.084;8.646;2022-09-23T05:26:26;6.30;99.90
20845;DHT22;10583;49.084;8.646;2022-09-23T05:28:54;6.30;99.90
20845;DHT22;10583;49.084;8.646;2022-09-23T05:31:23;6.30;99.90
20845;DHT22;10583;49.084;8.646;2022-09-23T05:33:54;6.30;99.90
20845;DHT22;10583;49.084;8.646;2022-09-23T05:36:22;6.30;99.90
20845;DHT22;10583;49.084;8.646;2022-09-23T05:38:49;6.40;99.90
20845;DHT22;10583;49.084;8.646;2022-09-23T05:41:18;6.40;99.90
20845;DHT22;10583;49.084;8.646;2022-09-23T05:43:47;6.40;99.90
20845;DHT22;10583;49.084;8.646;2022-09-23T05:46:16;6.50;99.90
20845;DHT22;10583;49.084;8.646;2022-09-23T05:48:43;6.50;99.90
20845;DHT22;10583;49.084;8.646;2022-09-23T05:51:15;6.60;99.90
20845;DHT22;10583;49.084;8.646;2022-09-23T05:53:42;6.70;99.90
20845;DHT22;10583;49.084;8.646;2022-09-23T05:56:10;6.80;99.90
20845;DHT22;10583;49.084;8.646;2022-09-23T05:58:37;6.90;99.90
20845;DHT22;10583;49.084;8.646;2022-09-23T06:01:08;6.90;99.90
20845;DHT22;10583;49.084;8.646;2022-09-23T06:03:35;7.00;99.90
20845;DHT22;10583;49.084;8.646;2022-09-23T06:06:02;7.10;99.90
20845;DHT22;10583;49.084;8.646;2022-09-23T06:08:30;7.30;99.90
20845;DHT22;10583;49.084;8.646;2022-09-23T06:11:01;7.50;99.90
20845;DHT22;10583;49.084;8.646;2022-09-23T06:13:30;7.80;99.90
20845;DHT22;10583;49.084;8.646;2022-09-23T06:15:59;8.00;99.90
20845;DHT22;10583;49.084;8.646;2022-09-23T06:18:26;8.10;99.90
20845;DHT22;10583;49.084;8.646;2022-09-23T06:20:53;8.30;99.90
20845;DHT22;10583;49.084;8.646;2022-09-23T06:23:19;8.40;99.90
20845;DHT22;10583;49.084;8.646;2022-09-23T06:25:47;8.50;99.90
20845;DHT22;10583;49.084;8.646;2022-09-23T06:28:14;8.70;99.90
20845;DHT22;10583;49.084;8.646;2022-09-23T06:30:41;8.80;99.90
20845;DHT22;10583;49.084;8.646;2022-09-23T06:33:08;9.00;99.90
20845;DHT22;10583;49.084;8.646;2022-09-23T06:35:35;9.20;99.90
20845;DHT22;10583;49.084;8.646;2022-09-23T06:38:03;9.40;99.90
20845;DHT22;10583;49.084;8.646;2022-09-23T06:40:30;9.50;99.90
20845;DHT22;10583;49.084;8.646;2022-09-23T06:42:59;9.70;99.90
20845;DHT22;10583;49.084;8.646;2022-09-23T06:45:27;9.90;99.90
20845;DHT22;10583;49.084;8.646;2022-09-23T06:47:54;10.00;99.90
20845;DHT22;10583;49.084;8.646;2022-09-23T06:50:22;10.10;99.90
20845;DHT22;10583;49.084;8.646;2022-09-23T06:52:51;10.20;99.90
20845;DHT22;10583;49.084;8.646;2022-09-23T06:55:21;10.20;99.90
20845;DHT22;10583;49.084;8.646;2022-09-23T06:57:48;10.30;99.90
20845;DHT22;10583;49.084;8.646;2022-09-23T07:00:16;10.30;99.90
20845;DHT22;10583;49.084;8.646;2022-09-23T07:02:43;10.30;99.90
20845;DHT22;10583;49.084;8.646;2022-09-23T07:05:11;10.30;99.90
20845;DHT22;10583;49.084;8.646;2022-09-23T07:07:38;10.30;99.90
20845;DHT22;10583;49.084;8.646;2022-09-23T07:10:06;10.20;99.90
20845;DHT22;10583;49.084;8.646;2022-09-23T07:12:33;10.30;99.90
20845;DHT22;10583;49.084;8.646;2022-09-23T07:15:00;10.30;99.90
20845;DHT22;10583;49.084;8.646;2022-09-23T07:17:28;10.40;99.90
20845;DHT22;10583;49.084;8.646;2022-09-23T07:19:55;10.50;99.90
20845;DHT22;10583;49.084;8.646;2022-09-23T07:22:24;10.70;99.90
20845;DHT22;10583;49.084;8.646;2022-09-23T07:24:52;10.80;99.90
20845;DHT22;10583;49.084;8.646;2022-09-23T07:27:22;11.00;99.90
20845;DHT22;10583;49.084;8.646;2022-09-23T07:29:50;11.00;99.90
20845;DHT22;10583;49.084;8.646;2022-09-23T07:32:17;11.10;99.90
20845;DHT22;10583;49.084;8.646;2022-09-23T07:34:47;11.20;99.90
20845;DHT22;10583;49.084;8.646;2022-09-23T07:37:15;11.30;99.90
20845;DHT22;10583;49.084;8.646;2022-09-23T07:39:43;11.40;99.90
20845;DHT22;10583;49.084;8.646;2022-09-23T07:42:11;11.50;99.90
20845;DHT22;10583;49.084;8.646;2022-09-23T07:44:39;11.70;99.90
20845;DHT22;10583;49.084;8.646;2022-09-23T07:47:06;11.90;99.90
20845;DHT22;10583;49.084;8.646;2022-09-23T07:49:34;12.00;99.90
20845;DHT22;10583;49.084;8.646;2022-09-23T07:52:03;12.20;99.90
20845;DHT22;10583;49.084;8.646;2022-09-23T07:54:30;12.30;99.90
20845;DHT22;10583;49.084;8.646;2022-09-23T07:56:58;12.50;99.90
20845;DHT22;10583;49.084;8.646;2022-09-23T07:59:25;12.70;99.90
20845;DHT22;10583;49.084;8.646;2022-09-23T08:01:53;12.80;99.90
20845;DHT22;10583;49.084;8.646;2022-09-23T08:04:22;12.80;99.90
20845;DHT22;10583;49.084;8.646;2022-09-23T08:06:51;13.00;99.90
20845;DHT22;10583;49.084;8.646;2022-09-23T08:09:22;13.10;99.90
20845;DHT22;10583;49.084;8.646;2022-09-23T08:11:50;13.20;99.90
20845;DHT22;10583;49.084;8.646;2022-09-23T08:14:17;13.40;99.90
20845;DHT22;10583;49.084;8.646;2022-09-23T08:16:46;13.60;99.90
20845;DHT22;10583;49.084;8.646;2022-09-23T08:19:14;13.70;99.90
20845;DHT22;10583;49.084;8.646;2022-09-23T08:21:41;13.80;99.90
20845;DHT22;10583;49.084;8.646;2022-09-23T08:24:13;14.00;99.90
20845;DHT22;10583;49.084;8.646;2022-09-23T08:26:42;14.20;99.90
20845;DHT22;10583;49.084;8.646;2022-09-23T08:29:11;13.90;99.90
20845;DHT22;10583;49.084;8.646;2022-09-23T08:31:38;13.90;99.90
20845;DHT22;10583;49.084;8.646;2022-09-23T08:34:05;14.10;99.90
20845;DHT22;10583;49.084;8.646;2022-09-23T08:36:32;14.30;99.90
20845;DHT22;10583;49.084;8.646;2022-09-23T08:38:59;14.50;99.90
20845;DHT22;10583;49.084;8.646;2022-09-23T08:41:33;14.60;99.90
20845;DHT22;10583;49.084;8.646;2022-09-23T08:44:09;14.70;99.90
20845;DHT22;10583;49.084;8.646;2022-09-23T08:46:42;14.90;99.90
20845;DHT22;10583;49.084;8.646;2022-09-23T08:49:19;15.10;99.90
20845;DHT22;10583;49.084;8.646;2022-09-23T08:51:50;15.40;99.90
20845;DHT22;10583;49.084;8.646;2022-09-23T08:54:19;15.60;99.90
20845;DHT22;10583;49.084;8.646;2022-09-23T08:56:49;15.80;99.90
20845;DHT22;10583;49.084;8.646;2022-09-23T08:59:21;16.00;99.90
20845;DHT22;10583;49.084;8.646;2022-09-23T09:01:51;16.00;99.90
20845;DHT22;10583;49.084;8.646;2022-09-23T09:04:23;16.00;99.90
20845;DHT22;10583;49.084;8.646;2022-09-23T09:06:55;16.10;99.90
20845;DHT22;10583;49.084;8.646;2022-09-23T09:09:25;16.20;99.90
20845;DHT22;10583;49.084;8.646;2022-09-23T09:12:02;16.20;99.90
20845;DHT22;10583;49.084;8.646;2022-09-23T09:14:36;16.50;99.90
20845;DHT22;10583;49.084;8.646;2022-09-23T09:17:09;16.90;99.90
20845;DHT22;10583;49.084;8.646;2022-09-23T09:19:54;17.50;99.90
20845;DHT22;10583;49.084;8.646;2022-09-23T09:22:32;17.70;99.90
20845;DHT22;10583;49.084;8.646;2022-09-23T09:25:10;18.10;99.90
20845;DHT22;10583;49.084;8.646;2022-09-23T09:27:41;18.30;99.90
20845;DHT22;10583;49.084;8.646;2022-09-23T09:30:12;18.50;99.90
20845;DHT22;10583;49.084;8.646;2022-09-23T09:32:43;18.60;99.90
20845;DHT22;10583;49.084;8.646;2022-09-23T09:35:23;18.70;99.90
20845;DHT22;10583;49.084;8.646;2022-09-23T09:37:52;18.50;99.90
20845;DHT22;10583;49.084;8.646;2022-09-23T09:40:20;18.40;99.90
20845;DHT22;10583;49.084;8.646;2022-09-23T09:42:48;18.50;99.90
20845;DHT22;10583;49.084;8.646;2022-09-23T09:45:25;18.50;99.90
20845;DHT22;10583;49.084;8.646;2022-09-23T09:48:01;18.80;99.90
20845;DHT22;10583;49.084;8.646;2022-09-23T09:50:44;19.10;99.90
20845;DHT22;10583;49.084;8.646;2022-09-23T09:53:18;19.20;99.90
20845;DHT22;10583;49.084;8.646;2022-09-23T09:55:57;19.60;99.90
20845;DHT22;10583;49.084;8.646;2022-09-23T09:58:26;19.80;99.90
20845;DHT22;10583;49.084;8.646;2022-09-23T10:00:56;19.80;99.90
20845;DHT22;10583;49.084;8.646;2022-09-23T10:03:39;20.10;99.90
20845;DHT22;10583;49.084;8.646;2022-09-23T10:06:16;20.40;99.90
20845;DHT22;10583;49.084;8.646;2022-09-23T10:08:50;20.60;99.90
20845;DHT22;10583;49.084;8.646;2022-09-23T10:11:28;20.90;99.90
20845;DHT22;10583;49.084;8.646;2022-09-23T10:14:14;21.00;99.90
20845;DHT22;10583;49.084;8.646;2022-09-23T10:16:45;20.30;99.90
20845;DHT22;10583;49.084;8.646;2022-09-23T10:19:23;20.20;99.90
20845;DHT22;10583;49.084;8.646;2022-09-23T10:21:52;19.90;99.90
20845;DHT22;10583;49.084;8.646;2022-09-23T10:24:25;20.00;99.90
20845;DHT22;10583;49.084;8.646;2022-09-23T10:26:57;20.30;99.90
20845;DHT22;10583;49.084;8.646;2022-09-23T10:29:29;20.70;99.90
20845;DHT22;10583;49.084;8.646;2022-09-23T10:32:16;20.90;99.90
20845;DHT22;10583;49.084;8.646;2022-09-23T10:34:45;21.00;99.90
20845;DHT22;10583;49.084;8.646;2022-09-23T10:37:15;21.10;99.10
20845;DHT22;10583;49.084;8.646;2022-09-23T10:39:44;20.80;98.60
20845;DHT22;10583;49.084;8.646;2022-09-23T10:42:39;20.50;99.80
20845;DHT22;10583;49.084;8.646;2022-09-23T10:45:33;20.80;99.90
20845;DHT22;10583;49.084;8.646;2022-09-23T10:48:27;21.00;99.10
20845;DHT22;10583;49.084;8.646;2022-09-23T10:50:58;21.30;99.70
20845;DHT22;10583;49.084;8.646;2022-09-23T10:53:33;21.40;98.80
20845;DHT22;10583;49.084;8.646;2022-09-23T10:56:18;21.40;99.00
20845;DHT22;10583;49.084;8.646;2022-09-23T10:59:03;21.70;98.90
20845;DHT22;10583;49.084;8.646;2022-09-23T11:01:38;22.00;98.50
20845;DHT22;10583;49.084;8.646;2022-09-23T11:04:32;22.00;97.50
20845;DHT22;10583;49.084;8.646;2022-09-23T11:07:13;22.00;97.30
20845;DHT22;10583;49.084;8.646;2022-09-23T11:09:59;22.00;97.30
20845;DHT22;10583;49.084;8.646;2022-09-23T11:12:37;21.80;98.60
20845;DHT22;10583;49.084;8.646;2022-09-23T11:15:21;22.10;98.50
20845;DHT22;10583;49.084;8.646;2022-09-23T11:18:09;22.40;98.00
20845;DHT22;10583;49.084;8.646;2022-09-23T11:20:52;22.50;98.20
20845;DHT22;10583;49.084;8.646;2022-09-23T11:26:22;22.60;97.30
20845;DHT22;10583;49.084;8.646;2022-09-23T11:29:28;22.60;97.40
20845;DHT22;10583;49.084;8.646;2022-09-23T11:32:09;22.60;97.60
20845;DHT22;10583;49.084;8.646;2022-09-23T11:34:59;22.60;96.90
20845;DHT22;10583;49.084;8.646;2022-09-23T11:37:35;22.40;97.20
20845;DHT22;10583;49.084;8.646;2022-09-23T11:40:11;22.40;97.40
20845;DHT22;10583;49.084;8.646;2022-09-23T11:42:49;22.30;96.90
20845;DHT22;10583;49.084;8.646;2022-09-23T11:45:21;22.40;97.10
20845;DHT22;10583;49.084;8.646;2022-09-23T11:47:53;21.90;97.50
20845;DHT22;10583;49.084;8.646;2022-09-23T11:50:26;21.60;97.40
20845;DHT22;10583;49.084;8.646;2022-09-23T11:53:01;21.60;97.40
20845;DHT22;10583;49.084;8.646;2022-09-23T11:55:33;21.80;98.00
20845;DHT22;10583;49.084;8.646;2022-09-23T11:58:05;22.20;97.40
20845;DHT22;10583;49.084;8.646;2022-09-23T12:00:37;21.90;96.80
20845;DHT22;10583;49.084;8.646;2022-09-23T12:03:10;21.70;97.60
20845;DHT22;10583;49.084;8.646;2022-09-23T12:05:44;22.00;97.40
20845;DHT22;10583;49.084;8.646;2022-09-23T12:08:20;22.30;96.80
20845;DHT22;10583;49.084;8.646;2022-09-23T12:10:54;22.20;96.20
20845;DHT22;10583;49.084;8.646;2022-09-23T12:13:31;22.30;96.80
20845;DHT22;10583;49.084;8.646;2022-09-23T12:18:59;22.00;97.50
20845;DHT22;10583;49.084;8.646;2022-09-23T12:21:49;22.10;97.00
20845;DHT22;10583;49.084;8.646;2022-09-23T12:24:31;22.20;96.60
20845;DHT22;10583;49.084;8.646;2022-09-23T12:27:04;22.10;97.30
20845;DHT22;10583;49.084;8.646;2022-09-23T12:29:33;22.00;96.80
20845;DHT22;10583;49.084;8.646;2022-09-23T12:32:01;21.90;98.30
20845;DHT22;10583;49.084;8.646;2022-09-23T12:34:35;22.10;97.80
20845;DHT22;10583;49.084;8.646;2022-09-23T12:37:04;22.20;96.40
20845;DHT22;10583;49.084;8.646;2022-09-23T12:39:34;22.30;96.60
20845;DHT22;10583;49.084;8.646;2022-09-23T12:42:05;22.50;96.50
20845;DHT22;10583;49.084;8.646;2022-09-23T12:44:35;22.60;96.10
20845;DHT22;10583;49.084;8.646;2022-09-23T12:47:37;22.30;96.50
20845;DHT22;10583;49.084;8.646;2022-09-23T12:56:15;21.70;98.20
20845;DHT22;10583;49.084;8.646;2022-09-23T12:58:57;22.20;97.70
20845;DHT22;10583;49.084;8.646;2022-09-23T13:01:24;22.50;96.70
20845;DHT22;10583;49.084;8.646;2022-09-23T13:03:53;22.60;95.30
20845;DHT22;10583;49.084;8.646;2022-09-23T13:06:39;22.40;96.30
20845;DHT22;10583;49.084;8.646;2022-09-23T13:09:11;21.70;97.20
20845;DHT22;10583;49.084;8.646;2022-09-23T13:11:41;21.40;97.40
20845;DHT22;10583;49.084;8.646;2022-09-23T13:14:13;21.20;98.20
20845;DHT22;10583;49.084;8.646;2022-09-23T13:16:42;21.20;98.30
20845;DHT22;10583;49.084;8.646;2022-09-23T13:19:41;21.20;98.20
20845;DHT22;10583;49.084;8.646;2022-09-23T13:22:09;21.20;97.70
20845;DHT22;10583;49.084;8.646;2022-09-23T13:24:40;21.10;97.30
20845;DHT22;10583;49.084;8.646;2022-09-23T13:27:16;21.10;97.80
20845;DHT22;10583;49.084;8.646;2022-09-23T13:29:49;21.00;98.10
20845;DHT22;10583;49.084;8.646;2022-09-23T13:32:18;20.80;97.90
20845;DHT22;10583;49.084;8.646;2022-09-23T13:34:53;20.70;97.90
20845;DHT22;10583;49.084;8.646;2022-09-23T13:37:24;20.60;98.20
20845;DHT22;10583;49.084;8.646;2022-09-23T13:40:07;20.50;98.60
20845;DHT22;10583;49.084;8.646;2022-09-23T13:42:37;20.30;98.70
20845;DHT22;10583;49.084;8.646;2022-09-23T13:45:13;20.30;98.90
20845;DHT22;10583;49.084;8.646;2022-09-23T13:47:43;20.30;99.50
20845;DHT22;10583;49.084;8.646;2022-09-23T13:50:16;20.30;99.20
20845;DHT22;10583;49.084;8.646;2022-09-23T13:52:44;20.40;98.70
20845;DHT22;10583;49.084;8.646;2022-09-23T13:55:24;20.40;99.60
20845;DHT22;10583;49.084;8.646;2022-09-23T13:57:58;20.30;98.80
20845;DHT22;10583;49.084;8.646;2022-09-23T14:00:26;20.30;99.10
20845;DHT22;10583;49.084;8.646;2022-09-23T14:02:53;20.40;99.20
20845;DHT22;10583;49.084;8.646;2022-09-23T14:05:22;20.40;98.90
20845;DHT22;10583;49.084;8.646;2022-09-23T14:07:49;20.50;99.30
20845;DHT22;10583;49.084;8.646;2022-09-23T14:10:19;20.50;98.70
20845;DHT22;10583;49.084;8.646;2022-09-23T14:12:48;20.60;97.60
20845;DHT22;10583;49.084;8.646;2022-09-23T14:15:18;20.60;98.50
20845;DHT22;10583;49.084;8.646;2022-09-23T14:17:46;20.70;98.40
20845;DHT22;10583;49.084;8.646;2022-09-23T14:20:16;20.60;98.30
20845;DHT22;10583;49.084;8.646;2022-09-23T14:22:43;20.50;98.60
20845;DHT22;10583;49.084;8.646;2022-09-23T14:25:12;20.50;98.10
20845;DHT22;10583;49.084;8.646;2022-09-23T14:27:40;20.60;97.50
20845;DHT22;10583;49.084;8.646;2022-09-23T14:30:13;20.70;97.70
20845;DHT22;10583;49.084;8.646;2022-09-23T14:32:42;20.70;97.50
20845;DHT22;10583;49.084;8.646;2022-09-23T14:35:18;20.60;98.30
20845;DHT22;10583;49.084;8.646;2022-09-23T14:37:47;20.50;98.20
20845;DHT22;10583;49.084;8.646;2022-09-23T14:40:36;20.20;98.10
20845;DHT22;10583;49.084;8.646;2022-09-23T14:43:05;20.20;99.30
20845;DHT22;10583;49.084;8.646;2022-09-23T14:45:34;20.10;98.60
20845;DHT22;10583;49.084;8.646;2022-09-23T14:48:06;20.10;98.30
20845;DHT22;10583;49.084;8.646;2022-09-23T14:50:34;20.10;99.20
20845;DHT22;10583;49.084;8.646;2022-09-23T14:53:33;20.10;99.00
20845;DHT22;10583;49.084;8.646;2022-09-23T14:56:10;20.20;98.70
20845;DHT22;10583;49.084;8.646;2022-09-23T14:58:42;20.10;98.40
20845;DHT22;10583;49.084;8.646;2022-09-23T15:01:23;20.10;99.50
20845;DHT22;10583;49.084;8.646;2022-09-23T15:03:52;20.10;99.70
20845;DHT22;10583;49.084;8.646;2022-09-23T15:06:22;20.00;99.90
20845;DHT22;10583;49.084;8.646;2022-09-23T15:08:50;20.00;99.90
20845;DHT22;10583;49.084;8.646;2022-09-23T15:11:20;19.90;99.80
20845;DHT22;10583;49.084;8.646;2022-09-23T15:13:48;19.80;99.90
20845;DHT22;10583;49.084;8.646;2022-09-23T15:16:23;19.70;99.90
20845;DHT22;10583;49.084;8.646;2022-09-23T15:18:54;19.60;99.90
20845;DHT22;10583;49.084;8.646;2022-09-23T15:21:23;19.50;99.90
20845;DHT22;10583;49.084;8.646;2022-09-23T15:23:51;19.40;99.90
20845;DHT22;10583;49.084;8.646;2022-09-23T15:26:21;19.40;99.90
20845;DHT22;10583;49.084;8.646;2022-09-23T15:28:49;19.30;99.90
20845;DHT22;10583;49.084;8.646;2022-09-23T15:31:19;19.30;99.90
20845;DHT22;10583;49.084;8.646;2022-09-23T15:33:47;19.20;99.90
20845;DHT22;10583;49.084;8.646;2022-09-23T15:36:17;19.00;99.90
20845;DHT22;10583;49.084;8.646;2022-09-23T15:38:45;19.00;99.90
20845;DHT22;10583;49.084;8.646;2022-09-23T15:41:13;18.90;99.90
20845;DHT22;10583;49.084;8.646;2022-09-23T15:43:41;18.80;99.90
20845;DHT22;10583;49.084;8.646;2022-09-23T15:46:14;18.70;99.90
20845;DHT22;10583;49.084;8.646;2022-09-23T15:48:47;18.70;99.90
20845;DHT22;10583;49.084;8.646;2022-09-23T15:51:17;18.60;99.90
20845;DHT22;10583;49.084;8.646;2022-09-23T15:53:44;18.60;99.90
20845;DHT22;10583;49.084;8.646;2022-09-23T15:56:12;18.50;99.90
20845;DHT22;10583;49.084;8.646;2022-09-23T15:58:38;18.50;99.90
20845;DHT22;10583;49.084;8.646;2022-09-23T16:01:05;18.40;99.90
20845;DHT22;10583;49.084;8.646;2022-09-23T16:03:32;18.40;99.90
20845;DHT22;10583;49.084;8.646;2022-09-23T16:06:00;18.30;99.90
20845;DHT22;10583;49.084;8.646;2022-09-23T16:08:30;18.30;99.90
20845;DHT22;10583;49.084;8.646;2022-09-23T16:10:57;18.20;99.90
20845;DHT22;10583;49.084;8.646;2022-09-23T16:13:24;18.10;99.90
20845;DHT22;10583;49.084;8.646;2022-09-23T16:15:51;18.00;99.90
20845;DHT22;10583;49.084;8.646;2022-09-23T16:18:18;18.00;99.90